Time;durP1;ratioP1;P1;durP2;ratioP2;P2;SDS_P1;SDS_P2;PMS_P1;PMS_P2;Temp;Humidity;BMP_temperature;BMP_pressure;BME280_temperature;BME280_humidity;BME280_pressure;Samples;Min_cycle;Max_cycle;Signal;HPM_P1;HPM_P2
2022/04/20 00:00:17;;;;;;;12.60;11.40;;;;;;;4.60;100.00;96088.03;5102283;28;20075;-46
2022/04/20 00:02:46;;;;;;;11.40;10.27;;;;;;;4.27;100.00;96081.81;5098533;28;20473;-44
2022/04/20 00:05:15;;;;;;;11.80;10.60;;;;;;;4.36;100.00;96085.50;5099990;28;20063;-45
2022/04/20 00:07:43;;;;;;;11.88;10.63;;;;;;;4.27;100.00;96081.00;5098071;28;20059;-48
2022/04/20 00:10:13;;;;;;;11.05;9.82;;;;;;;3.97;100.00;96087.53;5099481;28;20063;-52
2022/04/20 00:12:41;;;;;;;11.60;10.40;;;;;;;4.03;100.00;96087.09;5097964;28;20086;-47
2022/04/20 00:15:10;;;;;;;13.25;11.77;;;;;;;4.21;100.00;96090.09;5090346;28;20091;-50
2022/04/20 00:17:39;;;;;;;13.88;12.48;;;;;;;4.08;100.00;96085.91;5077181;28;20550;-44
2022/04/20 00:20:09;;;;;;;14.57;13.00;;;;;;;4.28;100.00;96087.88;5093891;28;20072;-44
2022/04/20 00:22:37;;;;;;;16.13;14.02;;;;;;;4.34;100.00;96083.97;5098657;28;20541;-47
2022/04/20 00:25:06;;;;;;;16.50;14.75;;;;;;;4.31;100.00;96079.81;5089015;28;20083;-45
2022/04/20 00:27:36;;;;;;;15.60;13.68;;;;;;;4.44;100.00;96082.31;5094951;28;20071;-50
2022/04/20 00:30:06;;;;;;;17.00;15.27;;;;;;;4.29;100.00;96077.28;5095155;28;20067;-50
2022/04/20 00:32:35;;;;;;;19.13;15.63;;;;;;;4.26;100.00;96081.91;5093953;28;20067;-51
2022/04/20 00:35:03;;;;;;;17.02;14.52;;;;;;;4.32;100.00;96075.41;5092767;28;20056;-50
2022/04/20 00:37:32;;;;;;;17.42;15.25;;;;;;;4.18;100.00;96076.44;5097031;28;20059;-44
2022/04/20 00:40:00;;;;;;;18.83;15.32;;;;;;;4.25;100.00;96073.25;5104969;28;20078;-46
2022/04/20 00:42:30;;;;;;;18.60;15.15;;;;;;;4.27;100.00;96078.38;5093847;28;20087;-47
2022/04/20 00:44:59;;;;;;;20.00;14.68;;;;;;;4.24;100.00;96073.38;5098006;28;20522;-46
2022/04/20 00:47:29;;;;;;;17.27;15.40;;;;;;;4.45;100.00;96081.38;5098920;28;20183;-49
2022/04/20 00:49:57;;;;;;;17.23;15.23;;;;;;;4.08;100.00;96085.91;5093326;28;20491;-50
2022/04/20 00:52:26;;;;;;;19.48;15.48;;;;;;;4.33;100.00;96079.69;5092764;28;20060;-46
2022/04/20 00:55:14;;;;;;;19.38;14.77;;;;;;;4.33;100.00;96087.50;5091947;28;20072;-43
2022/04/20 00:57:43;;;;;;;16.58;14.88;;;;;;;4.48;100.00;96086.38;5096267;28;20506;-48
2022/04/20 01:00:13;;;;;;;18.30;15.50;;;;;;;4.36;100.00;96084.66;5099523;28;20084;-45
2022/04/20 01:02:43;;;;;;;18.95;16.13;;;;;;;4.29;100.00;96081.69;5097393;28;20074;-43
2022/04/20 01:05:13;;;;;;;18.10;15.10;;;;;;;4.25;100.00;96080.25;5104753;28;20078;-48
2022/04/20 01:07:41;;;;;;;15.30;13.18;;;;;;;4.14;100.00;96085.47;5095067;28;20510;-44
2022/04/20 01:10:10;;;;;;;15.43;13.82;;;;;;;4.24;100.00;96083.84;5095929;28;20063;-47
2022/04/20 01:12:38;;;;;;;16.70;14.57;;;;;;;4.15;100.00;96081.91;5097366;28;20102;-45
2022/04/20 01:15:07;;;;;;;14.95;13.35;;;;;;;3.90;100.00;96081.09;5102561;28;20094;-47
2022/04/20 01:17:37;;;;;;;14.73;13.05;;;;;;;3.56;100.00;96080.97;5100684;28;20074;-49
2022/04/20 01:20:13;;;;;;;16.87;13.97;;;;;;;3.55;100.00;96081.09;5099416;28;20068;-52
2022/04/20 01:22:43;;;;;;;17.20;15.00;;;;;;;3.51;100.00;96077.88;5099329;28;20609;-48
2022/04/20 01:25:13;;;;;;;17.38;15.02;;;;;;;3.67;100.00;96074.13;5095920;28;20074;-49
2022/04/20 01:27:42;;;;;;;18.70;16.70;;;;;;;3.46;100.00;96071.31;5103957;28;20078;-52
2022/04/20 01:30:11;;;;;;;20.33;16.58;;;;;;;3.63;100.00;96073.53;5097744;27;20587;-45
2022/04/20 01:32:40;;;;;;;18.73;16.40;;;;;;;3.50;100.00;96073.56;5102308;28;20070;-52
2022/04/20 01:35:09;;;;;;;18.70;16.40;;;;;;;3.53;100.00;96073.34;5102560;28;20553;-50
2022/04/20 01:37:37;;;;;;;20.83;17.00;;;;;;;3.51;100.00;96072.66;5099259;28;20067;-45
2022/04/20 01:40:08;;;;;;;19.90;16.58;;;;;;;3.48;100.00;96066.81;5097264;28;20079;-55
2022/04/20 01:42:37;;;;;;;18.95;16.38;;;;;;;3.50;100.00;96068.38;5104163;28;20055;-45
2022/04/20 01:45:06;;;;;;;17.63;15.73;;;;;;;3.38;100.00;96064.03;5104259;27;20080;-47
2022/04/20 01:47:34;;;;;;;19.35;17.10;;;;;;;3.25;100.00;96060.66;5093737;28;20074;-48
2022/04/20 01:50:03;;;;;;;23.52;17.55;;;;;;;3.18;100.00;96062.03;5098455;28;20158;-45
2022/04/20 01:52:32;;;;;;;21.35;17.60;;;;;;;3.22;100.00;96066.91;5098797;28;20060;-46
2022/04/20 01:55:00;;;;;;;23.73;19.60;;;;;;;3.05;100.00;96070.69;5095284;28;20064;-45
2022/04/20 01:57:30;;;;;;;22.88;18.85;;;;;;;3.38;100.00;96058.84;5100743;28;20083;-48
2022/04/20 01:59:58;;;;;;;21.03;18.03;;;;;;;3.41;100.00;96057.78;5102409;28;20461;-45
2022/04/20 02:02:35;;;;;;;23.13;18.73;;;;;;;3.50;100.00;96057.94;5099343;28;20493;-48
2022/04/20 02:05:04;;;;;;;23.27;19.00;;;;;;;3.39;100.00;96065.69;5099556;28;20055;-51
2022/04/20 02:07:33;;;;;;;23.60;20.10;;;;;;;3.58;100.00;96057.41;5094356;28;20531;-45
2022/04/20 02:10:01;;;;;;;24.42;19.90;;;;;;;3.25;100.00;96060.66;5097827;28;20056;-45
2022/04/20 02:12:31;;;;;;;24.05;20.00;;;;;;;3.27;100.00;96069.19;5100977;28;20083;-46
2022/04/20 02:15:00;;;;;;;24.88;19.27;;;;;;;3.25;100.00;96065.88;5101592;28;20090;-50
2022/04/20 02:17:28;;;;;;;24.60;18.80;;;;;;;3.19;100.00;96069.72;5103670;28;20059;-47
2022/04/20 02:19:58;;;;;;;23.60;19.40;;;;;;;3.22;100.00;96069.50;5098899;28;20497;-46
2022/04/20 02:22:27;;;;;;;26.40;20.33;;;;;;;3.22;100.00;96071.28;5096876;28;20454;-44
2022/04/20 02:24:55;;;;;;;23.67;19.63;;;;;;;3.16;100.00;96075.16;5098377;28;20474;-45
2022/04/20 02:27:23;;;;;;;24.23;20.60;;;;;;;3.03;100.00;96070.00;5097198;28;20511;-50
2022/04/20 02:29:53;;;;;;;24.52;19.98;;;;;;;2.93;100.00;96068.97;5096054;28;20076;-43
2022/04/20 02:32:22;;;;;;;27.10;20.15;;;;;;;2.94;100.00;96067.19;5097104;28;20060;-44
2022/04/20 02:34:51;;;;;;;25.70;21.10;;;;;;;2.88;100.00;96072.84;5098267;28;20074;-47
2022/04/20 02:37:19;;;;;;;24.95;19.83;;;;;;;2.98;100.00;96071.25;5093513;28;20515;-45
2022/04/20 02:39:48;;;;;;;24.63;19.73;;;;;;;2.93;100.00;96066.38;5099399;28;20082;-43
2022/04/20 02:42:16;;;;;;;25.70;20.95;;;;;;;2.98;100.00;96068.66;5094932;28;20422;-53
2022/04/20 02:44:45;;;;;;;24.05;20.65;;;;;;;2.82;100.00;96074.94;5098295;28;20078;-47
2022/04/20 02:47:16;;;;;;;24.65;19.83;;;;;;;2.83;100.00;96075.75;5096043;28;20779;-44
2022/04/20 02:49:44;;;;;;;23.23;19.52;;;;;;;2.85;100.00;96069.50;5095723;28;20075;-46
2022/04/20 02:52:12;;;;;;;23.17;19.38;;;;;;;2.91;100.00;96070.03;5097235;28;20067;-45
2022/04/20 02:54:41;;;;;;;23.58;18.70;;;;;;;2.84;100.00;96064.41;5094192;28;20079;-45
2022/04/20 02:57:09;;;;;;;24.95;20.08;;;;;;;2.79;100.00;96069.94;5098209;28;20468;-49
2022/04/20 02:59:37;;;;;;;27.63;20.60;;;;;;;2.70;100.00;96067.13;5091883;28;20066;-46
2022/04/20 03:02:06;;;;;;;24.95;20.52;;;;;;;2.83;100.00;96066.19;5096199;28;20143;-46
2022/04/20 03:04:36;;;;;;;25.85;20.55;;;;;;;2.68;100.00;96064.63;5097601;28;20071;-46
2022/04/20 03:07:05;;;;;;;24.77;19.27;;;;;;;2.71;100.00;96069.63;5097115;28;20530;-50
2022/04/20 03:09:33;;;;;;;25.20;20.42;;;;;;;2.76;100.00;96070.16;5084260;28;20071;-45
2022/04/20 03:12:02;;;;;;;23.98;19.20;;;;;;;2.69;100.00;96070.69;5094489;28;20079;-44
2022/04/20 03:14:30;;;;;;;24.83;20.27;;;;;;;2.75;100.00;96068.50;5100446;28;20067;-48
2022/04/20 03:16:59;;;;;;;24.83;20.00;;;;;;;2.79;100.00;96075.16;5098847;28;20485;-44
2022/04/20 03:19:27;;;;;;;26.02;19.88;;;;;;;3.06;100.00;96072.38;5095525;28;20515;-52
2022/04/20 03:21:57;;;;;;;25.73;21.15;;;;;;;2.79;100.00;96077.75;5093638;28;20443;-47
2022/04/20 03:24:25;;;;;;;24.88;20.95;;;;;;;2.79;100.00;96071.72;5099195;28;20091;-47
2022/04/20 03:26:53;;;;;;;24.80;20.05;;;;;;;2.67;100.00;96073.38;5091784;28;20060;-44
2022/04/20 03:29:22;;;;;;;26.38;19.33;;;;;;;2.90;100.00;96074.41;5099280;27;20086;-51
2022/04/20 03:31:50;;;;;;;24.38;19.48;;;;;;;2.97;100.00;96083.44;5096912;28;20060;-47
2022/04/20 03:34:19;;;;;;;27.13;19.90;;;;;;;2.85;100.00;96086.88;5096521;28;20067;-48
2022/04/20 03:36:47;;;;;;;23.55;19.48;;;;;;;2.77;100.00;96086.59;5100622;28;20079;-45
2022/04/20 03:39:17;;;;;;;24.90;20.00;;;;;;;2.77;100.00;96091.81;5098867;28;20118;-48
2022/04/20 03:41:45;;;;;;;25.35;19.88;;;;;;;2.69;100.00;96078.50;5100059;28;20472;-44
2022/04/20 03:44:14;;;;;;;25.92;19.92;;;;;;;2.66;100.00;96083.91;5095790;28;20115;-44
2022/04/20 03:46:42;;;;;;;26.20;19.63;;;;;;;2.54;100.00;96075.16;5097678;28;20059;-46
2022/04/20 03:49:10;;;;;;;23.20;19.23;;;;;;;2.56;100.00;96073.28;5091968;28;20068;-46
2022/04/20 03:51:39;;;;;;;25.98;20.27;;;;;;;2.69;100.00;96075.88;5097676;28;20083;-48
2022/04/20 03:54:07;;;;;;;24.65;19.00;;;;;;;2.57;100.00;96072.34;5092784;28;20074;-45
2022/04/20 03:59:19;;;;;;;25.48;19.75;;;;;;;2.34;100.00;96069.56;5089008;28;20075;-51
2022/04/20 04:01:48;;;;;;;25.20;19.67;;;;;;;2.28;100.00;96075.16;5091864;28;20086;-47
2022/04/20 04:04:16;;;;;;;24.88;18.75;;;;;;;2.41;100.00;96071.72;5099464;28;20060;-49
2022/04/20 04:06:44;;;;;;;24.60;18.48;;;;;;;2.40;100.00;96067.47;5094083;28;20083;-47
2022/04/20 04:09:13;;;;;;;26.15;19.05;;;;;;;2.34;100.00;96068.69;5095458;28;20525;-49
2022/04/20 04:11:42;;;;;;;23.50;19.25;;;;;;;2.33;100.00;96070.47;5097581;28;20066;-44
2022/04/20 04:14:11;;;;;;;22.87;18.53;;;;;;;2.47;100.00;96063.50;5096750;28;20071;-48
2022/04/20 04:16:40;;;;;;;23.75;18.83;;;;;;;2.42;100.00;96061.22;5095872;28;20597;-45
2022/04/20 04:19:09;;;;;;;24.30;18.77;;;;;;;2.32;100.00;96060.19;5097766;28;20070;-49
2022/04/20 04:21:38;;;;;;;23.88;18.58;;;;;;;2.42;100.00;96056.00;5094669;28;20087;-45
2022/04/20 04:24:07;;;;;;;23.30;18.00;;;;;;;2.36;100.00;96064.22;5102480;28;20067;-46
2022/04/20 04:26:35;;;;;;;22.40;17.65;;;;;;;2.56;100.00;96055.91;5095115;28;20089;-44
2022/04/20 04:29:05;;;;;;;25.63;18.58;;;;;;;2.63;100.00;96065.91;5093968;28;20071;-48
2022/04/20 04:31:37;;;;;;;23.30;19.35;;;;;;;2.65;100.00;96075.28;5098579;28;20067;-43
2022/04/20 04:34:06;;;;;;;21.30;17.73;;;;;;;2.60;100.00;96066.94;5077066;28;20078;-50
2022/04/20 04:36:34;;;;;;;22.48;18.17;;;;;;;2.65;100.00;96064.00;5097898;28;20094;-46
2022/04/20 04:39:02;;;;;;;24.08;19.83;;;;;;;2.64;100.00;96073.59;5098606;28;20076;-48
2022/04/20 04:41:31;;;;;;;22.88;19.40;;;;;;;2.72;100.00;96063.50;5092410;28;20876;-45
2022/04/20 04:43:59;;;;;;;24.55;18.77;;;;;;;2.78;100.00;96070.84;5101066;28;20494;-45
2022/04/20 04:49:14;;;;;;;21.35;17.95;;;;;;;2.87;100.00;96077.22;5096023;28;20484;-46
2022/04/20 04:51:43;;;;;;;22.40;17.85;;;;;;;3.00;100.00;96077.19;5079782;28;20067;-49
2022/04/20 04:54:11;;;;;;;22.92;18.27;;;;;;;3.28;100.00;96070.84;5099041;28;20080;-44
2022/04/20 04:56:39;;;;;;;26.50;22.45;;;;;;;3.48;100.00;96075.47;5092057;28;20077;-51
2022/04/20 04:59:11;;;;;;;25.05;21.30;;;;;;;4.57;100.00;96072.59;5094275;28;20571;-48
2022/04/20 05:01:41;;;;;;;23.38;20.88;;;;;;;5.58;100.00;96069.06;5092292;28;20635;-46
2022/04/20 05:04:11;;;;;;;19.45;17.40;;;;;;;5.44;100.00;96076.25;5099390;28;20060;-47
2022/04/20 05:06:39;;;;;;;17.73;15.93;;;;;;;5.98;100.00;96073.69;5093626;28;20083;-49
2022/04/20 05:09:07;;;;;;;16.75;15.05;;;;;;;6.45;100.00;96071.56;5100232;28;20075;-49
2022/04/20 05:11:36;;;;;;;17.70;15.13;;;;;;;6.15;100.00;96081.81;5095501;28;20063;-43
2022/04/20 05:14:04;;;;;;;15.57;14.07;;;;;;;6.25;100.00;96066.19;5093519;28;20070;-52
2022/04/20 05:16:32;;;;;;;15.50;13.93;;;;;;;6.72;100.00;96071.03;5093314;28;20070;-45
2022/04/20 05:19:02;;;;;;;14.70;13.30;;;;;;;6.55;100.00;96077.69;5078755;28;20059;-46
2022/04/20 05:21:31;;;;;;;14.07;12.35;;;;;;;6.11;100.00;96071.75;5097274;28;20690;-44
2022/04/20 05:23:59;;;;;;;12.07;10.88;;;;;;;5.96;100.00;96086.09;5094374;28;20558;-49
2022/04/20 05:26:31;;;;;;;12.68;11.38;;;;;;;5.94;100.00;96079.19;5095764;28;20068;-50
2022/04/20 05:29:00;;;;;;;13.40;11.85;;;;;;;5.20;100.00;96083.41;5099908;28;20039;-51
2022/04/20 05:31:28;;;;;;;13.50;11.55;;;;;;;4.94;100.00;96088.88;5094905;28;20071;-48
2022/04/20 05:33:57;;;;;;;14.85;13.35;;;;;;;4.99;100.00;96089.38;5096139;28;20056;-47
2022/04/20 05:41:39;;;;;;;15.25;13.73;;;;;;;4.76;100.00;96085.91;5099325;28;20508;-46
2022/04/20 05:42:01;;;;;;;16.45;13.75;;;;;;;5.16;100.00;96088.06;5096737;28;20059;-46
2022/04/20 05:44:29;;;;;;;15.50;13.68;;;;;;;4.91;100.00;96083.06;5080425;27;20099;-51
2022/04/20 05:46:58;;;;;;;14.00;12.57;;;;;;;4.96;100.00;96087.00;5085029;27;20597;-53
2022/04/20 05:49:27;;;;;;;15.13;13.18;;;;;;;5.17;100.00;96092.31;5083414;28;20514;-54
2022/04/20 05:51:57;;;;;;;16.38;14.55;;;;;;;5.05;100.00;96092.44;5107677;27;20059;-49
2022/04/20 05:54:26;;;;;;;15.43;13.30;;;;;;;5.20;100.00;96086.03;5106302;27;20206;-50
2022/04/20 05:56:54;;;;;;;14.70;13.20;;;;;;;5.08;100.00;96089.59;5104111;27;20070;-46
2022/04/20 05:59:22;;;;;;;15.20;13.60;;;;;;;5.01;100.00;96094.47;5103963;27;20075;-48
2022/04/20 06:01:51;;;;;;;15.48;13.43;;;;;;;5.04;100.00;96096.84;5106316;27;20082;-51
2022/04/20 06:04:19;;;;;;;15.77;13.82;;;;;;;5.22;100.00;96091.94;5097602;28;20068;-53
2022/04/20 06:06:48;;;;;;;15.70;12.93;;;;;;;5.13;100.00;96095.31;5105806;27;20806;-50
2022/04/20 06:09:17;;;;;;;15.30;13.68;;;;;;;5.29;100.00;96087.06;5100454;27;20072;-48
2022/04/20 06:11:46;;;;;;;18.20;14.23;;;;;;;5.64;100.00;96090.34;5105396;27;20052;-47
2022/04/20 06:14:14;;;;;;;14.55;13.02;;;;;;;5.65;100.00;96083.31;5107017;27;20070;-51
2022/04/20 06:16:42;;;;;;;14.38;12.63;;;;;;;5.79;100.00;96090.06;5122526;27;20082;-46
2022/04/20 06:19:11;;;;;;;13.77;12.40;;;;;;;5.71;100.00;96088.03;5126334;27;20061;-45
2022/04/20 06:21:39;;;;;;;16.63;12.85;;;;;;;6.10;100.00;96078.75;5104191;27;20084;-48
2022/04/20 06:24:08;;;;;;;13.82;12.43;;;;;;;6.13;100.00;96075.06;5105463;27;20521;-50
2022/04/20 06:26:37;;;;;;;14.00;11.77;;;;;;;5.69;100.00;96074.25;5101845;27;20071;-44
2022/04/20 06:29:06;;;;;;;13.43;11.63;;;;;;;5.87;100.00;96066.69;5104453;27;20574;-47
2022/04/20 06:31:35;;;;;;;14.98;12.27;;;;;;;6.18;100.00;96057.19;5101441;27;20462;-46
2022/04/20 06:34:04;;;;;;;15.57;13.15;;;;;;;6.32;100.00;96056.03;5105659;27;20070;-44
2022/04/20 06:36:32;;;;;;;15.77;13.32;;;;;;;6.22;100.00;96068.22;5103638;27;20086;-44
2022/04/20 06:39:01;;;;;;;13.63;12.07;;;;;;;6.59;100.00;96066.81;5101079;27;20064;-47
2022/04/20 06:41:29;;;;;;;16.20;12.00;;;;;;;6.65;100.00;96061.06;5100867;27;20604;-49
2022/04/20 06:43:59;;;;;;;14.23;11.85;;;;;;;7.00;100.00;96067.69;5103580;27;20060;-45
2022/04/20 06:46:28;;;;;;;13.77;12.37;;;;;;;6.53;100.00;96059.47;5105123;27;20166;-44
2022/04/20 06:49:03;;;;;;;13.32;11.93;;;;;;;7.12;100.00;96060.53;5103545;27;20062;-47
2022/04/20 06:58:31;;;;;;;13.45;12.10;;;;;;;7.17;100.00;96068.03;5106583;27;20113;-44
2022/04/20 06:59:53;;;;;;;14.93;11.38;;;;;;;7.60;100.00;96063.31;5104039;27;20480;-45
2022/04/20 07:02:22;;;;;;;13.70;11.90;;;;;;;7.79;100.00;96064.28;5103789;27;20067;-48
2022/04/20 07:04:51;;;;;;;11.23;10.02;;;;;;;7.59;100.00;96064.25;5105495;27;20533;-51
2022/04/20 07:07:19;;;;;;;13.07;11.68;;;;;;;7.60;100.00;96057.19;5087482;28;20089;-46
2022/04/20 07:10:08;;;;;;;13.95;11.65;;;;;;;7.55;100.00;96057.63;5103741;27;20055;-45
2022/04/20 07:12:36;;;;;;;13.60;11.38;;;;;;;7.87;100.00;96056.53;5101491;27;20460;-47
2022/04/20 07:15:07;;;;;;;12.85;11.55;;;;;;;7.90;100.00;96047.56;5104000;27;20508;-46
2022/04/20 07:17:36;;;;;;;14.13;12.05;;;;;;;8.03;100.00;96035.00;5104434;27;20477;-45
2022/04/20 07:20:06;;;;;;;12.82;10.63;;;;;;;7.64;100.00;96040.25;5108904;27;20071;-47
2022/04/20 07:22:34;;;;;;;13.13;11.73;;;;;;;7.81;100.00;96044.81;5107806;27;20481;-47
2022/04/20 07:25:03;;;;;;;11.82;10.32;;;;;;;7.69;100.00;96047.69;5104335;27;20473;-47
2022/04/20 07:27:32;;;;;;;11.88;10.57;;;;;;;7.87;100.00;96048.66;5105815;27;20082;-46
2022/04/20 07:30:01;;;;;;;11.82;10.60;;;;;;;7.94;100.00;96030.56;5114037;27;20093;-44
2022/04/20 07:32:30;;;;;;;12.68;11.38;;;;;;;8.20;100.00;96028.22;5109258;28;20133;-44
2022/04/20 07:35:01;;;;;;;13.52;12.13;;;;;;;8.28;100.00;96044.91;5118523;27;20088;-44
2022/04/20 07:37:31;;;;;;;12.10;10.73;;;;;;;8.22;100.00;96042.00;5121118;27;20528;-45
2022/04/20 07:39:59;;;;;;;12.55;11.25;;;;;;;8.61;100.00;96034.91;5122911;27;20058;-47
2022/04/20 07:42:27;;;;;;;12.88;11.45;;;;;;;8.64;100.00;96042.53;5108506;27;20076;-46
2022/04/20 07:44:56;;;;;;;13.50;10.85;;;;;;;8.27;100.00;96040.63;5102544;27;20078;-45
2022/04/20 07:47:25;;;;;;;13.35;11.43;;;;;;;8.70;100.00;96043.72;5100270;27;20130;-45
2022/04/20 07:52:42;;;;;;;12.52;11.23;;;;;;;9.15;100.00;96054.38;5079782;28;20575;-44
2022/04/20 07:55:12;;;;;;;13.90;10.87;;;;;;;9.48;100.00;96052.09;5104093;27;20060;-47
2022/04/20 07:57:42;;;;;;;11.55;10.35;;;;;;;9.42;100.00;96047.44;5089099;28;20067;-49
2022/04/20 08:00:13;;;;;;;12.05;10.02;;;;;;;8.92;100.00;96055.72;5099167;28;20083;-46
2022/04/20 08:02:42;;;;;;;15.35;10.98;;;;;;;9.31;100.00;96048.47;5078985;28;20067;-44
2022/04/20 08:05:13;;;;;;;11.90;10.60;;;;;;;9.75;100.00;96053.88;5075867;28;20059;-48
2022/04/20 08:07:42;;;;;;;14.35;10.90;;;;;;;9.55;100.00;96047.91;5058284;28;20856;-46
2022/04/20 08:10:11;;;;;;;11.82;9.70;;;;;;;9.56;100.00;96046.91;5080006;28;20544;-47
2022/04/20 08:12:42;;;;;;;12.65;10.35;;;;;;;9.05;100.00;96050.97;5103564;27;20071;-48
2022/04/20 08:15:10;;;;;;;;;;;;;;;9.66;100.00;96055.59;5102839;27;20093;-46
2022/04/20 08:17:39;;;;;;;12.57;10.85;;;;;;;9.54;100.00;96058.59;5097794;27;19967;-50
2022/04/20 08:20:09;;;;;;;11.82;10.63;;;;;;;9.93;100.00;96053.88;5109642;27;20536;-49
2022/04/20 08:22:42;;;;;;;13.15;10.98;;;;;;;9.69;100.00;96054.47;5100029;28;20105;-46
2022/04/20 08:25:13;;;;;;;16.02;11.32;;;;;;;9.52;100.00;96054.28;5100395;28;20067;-44
2022/04/20 08:27:41;;;;;;;10.02;8.05;;;;;;;9.42;100.00;96053.50;5094400;28;20098;-48
2022/04/20 08:30:10;;;;;;;13.90;10.23;;;;;;;10.06;100.00;96042.97;5097110;28;20532;-45
2022/04/20 08:32:40;;;;;;;11.23;9.38;;;;;;;9.65;100.00;96053.94;5100986;28;20063;-45
2022/04/20 08:35:09;;;;;;;11.18;10.07;;;;;;;10.01;100.00;96055.75;5099849;28;20575;-44
2022/04/20 08:37:44;;;;;;;10.23;9.18;;;;;;;9.93;100.00;96053.88;5092589;28;20067;-44
2022/04/20 08:40:13;;;;;;;9.60;8.60;;;;;;;10.27;100.00;96053.22;5082822;28;20071;-46
2022/04/20 08:42:42;;;;;;;13.70;9.02;;;;;;;10.37;100.00;96041.59;5062987;28;20075;-53
2022/04/20 08:45:11;;;;;;;10.32;9.32;;;;;;;10.07;100.00;96050.72;5082404;28;20482;-47
2022/04/20 08:47:40;;;;;;;9.80;8.90;;;;;;;10.38;100.00;96037.97;5083407;28;20043;-48
2022/04/20 08:50:10;;;;;;;10.70;9.63;;;;;;;10.54;100.00;96041.72;5082343;28;20075;-45
2022/04/20 08:52:38;;;;;;;11.13;10.02;;;;;;;10.43;100.00;96034.91;5086076;28;20056;-48
2022/04/20 08:55:11;;;;;;;10.70;9.52;;;;;;;11.08;100.00;96034.41;5082864;28;20048;-47
2022/04/20 08:57:42;;;;;;;10.20;9.10;;;;;;;10.47;100.00;96035.41;5083864;28;20083;-46
2022/04/20 09:00:11;;;;;;;10.27;9.20;;;;;;;10.54;100.00;96025.91;5080677;28;20090;-45
2022/04/20 09:02:41;;;;;;;9.82;8.82;;;;;;;10.95;90.10;96034.88;5085815;28;20147;-45
2022/04/20 09:05:09;;;;;;;9.82;8.82;;;;;;;11.38;86.91;96025.16;5081183;28;20457;-48
2022/04/20 09:07:44;;;;;;;9.07;8.18;;;;;;;10.92;84.91;96027.28;5091277;28;20076;-49
2022/04/20 09:10:16;;;;;;;9.05;8.15;;;;;;;10.77;88.58;96019.13;5100866;28;20122;-50
2022/04/20 09:12:46;;;;;;;9.88;8.88;;;;;;;11.53;81.56;96023.56;5086164;28;20421;-45
2022/04/20 09:15:28;;;;;;;9.68;8.65;;;;;;;11.35;84.90;96031.56;5102047;28;20413;-50
2022/04/20 09:17:57;;;;;;;8.38;7.50;;;;;;;11.04;78.77;96022.53;5084429;28;20187;-45
2022/04/20 09:20:26;;;;;;;9.63;8.13;;;;;;;11.27;71.41;96015.72;5101739;28;20040;-45
2022/04/20 09:23:02;;;;;;;9.57;7.75;;;;;;;11.46;76.03;96014.63;5103383;27;20055;-47
2022/04/20 09:25:33;;;;;;;10.88;8.93;;;;;;;11.13;77.60;96014.50;5102219;28;20064;-47
2022/04/20 09:28:01;;;;;;;9.60;7.65;;;;;;;10.73;74.89;96009.84;5104141;28;20062;-46
2022/04/20 09:30:35;;;;;;;8.90;8.00;;;;;;;11.27;70.88;96005.16;5101067;27;20134;-47
2022/04/20 09:33:06;;;;;;;8.45;7.45;;;;;;;11.27;68.96;96004.31;5102317;27;20094;-51
2022/04/20 09:35:43;;;;;;;7.90;7.10;;;;;;;11.14;69.97;95997.69;5105024;27;20067;-52
2022/04/20 09:38:11;;;;;;;8.55;6.72;;;;;;;11.39;66.25;95988.03;5082106;28;20064;-49
2022/04/20 09:40:41;;;;;;;8.15;7.32;;;;;;;11.84;60.23;95989.47;5082899;28;20048;-45
2022/04/20 09:43:15;;;;;;;8.88;7.97;;;;;;;11.91;68.47;95986.19;5099777;27;20721;-52
2022/04/20 09:45:44;;;;;;;9.60;7.32;;;;;;;11.82;64.00;95985.28;5099614;27;20040;-51
2022/04/20 09:51:10;;;;;;;7.82;6.63;;;;;;;11.75;62.10;95992.22;5066857;28;20436;-48
2022/04/20 09:53:38;;;;;;;9.02;7.95;;;;;;;11.79;62.41;95988.25;5101503;27;20055;-48
2022/04/20 09:56:18;;;;;;;8.68;7.55;;;;;;;11.91;61.02;95984.34;5100280;27;20091;-45
2022/04/20 09:58:48;;;;;;;7.63;6.93;;;;;;;12.48;57.36;95984.28;5102237;27;20090;-47
2022/04/20 10:01:27;;;;;;;8.80;7.90;;;;;;;11.84;61.79;95983.38;5103098;27;20063;-51
2022/04/20 10:03:56;;;;;;;8.85;7.45;;;;;;;12.49;64.28;95979.84;5106117;27;20075;-43
2022/04/20 10:06:24;;;;;;;8.57;7.38;;;;;;;12.28;56.29;95988.28;5097600;28;20537;-48
2022/04/20 10:08:53;;;;;;;7.28;6.57;;;;;;;12.51;57.75;95980.50;5104718;27;20160;-49
2022/04/20 10:11:24;;;;;;;9.38;7.13;;;;;;;12.24;54.49;95986.97;5104074;27;20774;-49
2022/04/20 10:16:42;;;;;;;11.15;7.53;;;;;;;12.36;57.76;95980.38;5104157;27;20036;-46
2022/04/20 10:19:13;;;;;;;10.38;7.40;;;;;;;12.39;56.80;95972.09;5104568;27;20081;-49
2022/04/20 10:21:46;;;;;;;8.35;7.35;;;;;;;12.44;55.19;95967.13;5098679;27;20083;-45
2022/04/20 10:24:18;;;;;;;8.85;7.10;;;;;;;13.23;53.21;95961.91;5103992;27;20149;-52
2022/04/20 10:26:48;;;;;;;7.30;6.60;;;;;;;12.86;52.96;95973.13;5097873;27;20096;-46
2022/04/20 10:29:21;;;;;;;7.78;7.05;;;;;;;12.82;53.16;95967.34;5100894;28;20063;-46
2022/04/20 10:31:52;;;;;;;8.32;7.53;;;;;;;12.72;56.79;95972.84;5105845;27;20824;-42
2022/04/20 10:34:21;;;;;;;7.10;6.45;;;;;;;12.77;51.86;95965.22;5109124;27;20059;-47
2022/04/20 10:37:00;;;;;;;6.25;5.65;;;;;;;12.70;48.63;95968.72;5102168;27;20102;-47
2022/04/20 10:39:36;;;;;;;6.75;6.10;;;;;;;12.87;47.54;95958.91;5101288;27;20067;-44
2022/04/20 10:42:20;;;;;;;7.88;6.10;;;;;;;12.88;48.60;95961.38;5095952;28;20071;-47
2022/04/20 10:45:00;;;;;;;8.35;6.22;;;;;;;13.15;47.42;95956.66;5105623;27;20548;-51
2022/04/20 10:47:30;;;;;;;6.65;5.78;;;;;;;13.16;48.19;95958.28;5105389;27;20063;-44
2022/04/20 10:50:16;;;;;;;7.80;6.88;;;;;;;12.55;51.00;95955.34;5101177;28;20481;-52
2022/04/20 10:52:48;;;;;;;6.78;6.07;;;;;;;13.06;48.19;95948.72;5102032;27;20181;-50
2022/04/20 10:55:16;;;;;;;7.00;6.40;;;;;;;13.23;46.90;95943.38;5100779;27;20469;-47
2022/04/20 10:57:46;;;;;;;7.03;6.32;;;;;;;13.36;45.07;95941.00;5101086;27;20473;-48
2022/04/20 11:00:42;;;;;;;6.80;6.10;;;;;;;13.15;45.47;95943.41;5101712;27;20549;-53
2022/04/20 11:03:12;;;;;;;6.80;6.20;;;;;;;13.40;48.37;95934.34;5053004;27;20075;-45
2022/04/20 11:05:52;;;;;;;7.18;6.20;;;;;;;13.40;47.50;95936.19;5099249;27;20059;-49
2022/04/20 11:08:22;;;;;;;6.57;5.90;;;;;;;13.44;47.28;95933.00;5097648;28;20108;-45
2022/04/20 11:18:38;;;;;;;8.55;6.32;;;;;;;12.85;46.09;95932.63;5103707;27;20031;-44
2022/04/20 11:19:49;;;;;;;6.97;6.30;;;;;;;13.35;46.72;95915.53;5098617;28;20059;-49
2022/04/20 11:22:17;;;;;;;7.00;6.30;;;;;;;13.59;46.54;95905.75;5102953;28;20074;-48
2022/04/20 11:24:47;;;;;;;7.38;6.68;;;;;;;13.26;49.08;95919.22;5101179;27;20658;-45
2022/04/20 11:27:16;;;;;;;7.68;6.88;;;;;;;13.42;48.17;95907.69;5097242;27;20086;-45
2022/04/20 11:29:47;;;;;;;8.05;7.25;;;;;;;13.45;48.87;95904.69;5101190;27;20394;-52
2022/04/20 11:32:15;;;;;;;8.02;7.22;;;;;;;13.57;48.68;95887.41;5092506;27;20059;-49
2022/04/20 11:34:44;;;;;;;7.95;7.15;;;;;;;13.44;47.16;95895.91;5105222;27;20565;-42
2022/04/20 11:37:12;;;;;;;8.30;6.85;;;;;;;13.34;46.54;95902.44;5099440;28;20074;-46
2022/04/20 11:39:40;;;;;;;8.68;7.32;;;;;;;13.70;46.83;95895.56;5106749;27;20086;-44
2022/04/20 11:42:11;;;;;;;8.05;7.25;;;;;;;13.50;45.68;95889.09;5082194;28;20071;-44
2022/04/20 11:44:41;;;;;;;9.43;7.35;;;;;;;13.54;45.86;95883.25;5097763;27;20074;-49
2022/04/20 11:47:15;;;;;;;7.40;6.70;;;;;;;13.89;44.94;95878.34;5092372;28;20072;-46
2022/04/20 11:49:46;;;;;;;8.55;6.40;;;;;;;13.96;43.87;95879.25;5099115;27;20063;-46
2022/04/20 11:52:17;;;;;;;6.78;6.07;;;;;;;13.80;44.82;95873.28;5098003;27;20147;-45
2022/04/20 11:54:47;;;;;;;6.82;6.05;;;;;;;13.53;43.60;95894.88;5099167;27;20549;-44
2022/04/20 11:57:16;;;;;;;8.68;6.68;;;;;;;13.89;42.51;95896.91;5100441;27;20076;-47
2022/04/20 11:59:46;;;;;;;7.22;6.38;;;;;;;13.96;42.08;95889.06;5100774;27;20079;-52
2022/04/20 12:02:16;;;;;;;7.72;6.97;;;;;;;13.26;41.58;95879.50;5095705;28;20062;-49